ESSD/BLE METAR and TAF weather

Enter ICAO airport designator
Station Type Date Time Source
ESSD METAR 2019/05/20 10:20 UTC NOAA

ESSD 201020Z 05006KT 9999 FEW010 BKN092 18/14 Q1012


Station Type Date Time Source
ESSD Decoded METAR 2019/05/20 10:20 UTC NOAA

Borlange, Sweden (ESSD) 60-26N 015-31E 0M
May 20, 2019 - 06:20 AM EDT / 2019.05.20 1020 UTC
Wind: from the NE (050 degrees) at 7 MPH (6 KT):0
Visibility: greater than 7 mile(s):0
Sky conditions: mostly cloudy
Temperature: 64 F (18 C)
Dew Point: 57 F (14 C)
Relative Humidity: 77%
Pressure (altimeter): 29.88 in. Hg (1012 hPa)
ob: ESSD 201020Z 05006KT 9999 FEW010 BKN092 18/14 Q1012
cycle: 10

Station Type Date Time Source
ESSD TAF 2018/05/02 04:48 UTC NOAA

TAF TAF ESSD 020320Z 0204/0412 27008KT 9999 BKN019 PROB40 0204/0209 BKN006

Example: see airport list